Airfield :
LOGIN :

Register | Disclaimer

   EN    FR    IT 

 










Legend :    VFR   Marginal VFR   IFR   Intensive IFR   Very Intensive IFR
Visi :
Ceiling :
>= 8 km
>= 3000ft
5 to 8 km
1000 to 3000 ft
1500m to 5 km
500 to 1000 ft
800 to 1500m
200 to 500 ft
< 800m
< 200 ft
Symbols :   Thunderstorms  Fog  Heavy snow  Heavy precipitations  Wind > 20 kt
SIGMETs :     Misc.  Thunderstorms  Icing  Turbulence  Mountain Waves  Volcanic Ashes






- Airport Elevation : 2313 ft
- IATA code : OHD


LWOH - Ohrid

CURRENT METAR :
  • 271900Z 34007KT 9999 -DZ SCT020 OVC035 03/M00 Q1021

EXPIRED METARs :
  • 271830Z 34008KT 9999 -DZ SCT020 OVC035 03/M00 Q1021
  • 271800Z 33007KT 9999 -DZ SCT020 OVC035 03/M00 Q1022
  • 271730Z 34008KT 9999 -DZ SCT020 OVC035 03/M00 Q1022
  • 271700Z 34006KT 9999 -DZ SCT020 OVC035 03/M00 Q1022
  • 271630Z 35009KT 9999 -DZ SCT020 OVC035 03/M00 Q1022

TAF TAF LWOH
Valid from the 27 at 18:00 until the 28 at 18:00 UTC


271730Z 2718/2818 36010KT 9999 -RA SCT020 OVC040
TEMPO 2718/2806 5000 RA SCT015 OVC033
PROB40
TEMPO 2723/2803 3000 RASN
BECMG 2810/2812 04010KT NSW BKN035



MET'MAP, your aeronautical weather chart ! - Copyright ORBIFLY December 2007 - Disclaimer

ORBIFLY MET'MAP TEAM :

Programming & Development : Alexandra Zaïnal
Original concept : Baudouin d'Aumeries
Technical & hardware support : Manuel Goepfert
Assistance : Marc-Olivier Méhu




SOURCES & CREDITS :

   NOAA